createdAt,value
2018-09-19T00:00:16.840Z,1013.31
2018-09-19T00:01:16.836Z,1013.31
2018-09-19T00:02:16.797Z,1013.30
2018-09-19T00:03:16.792Z,1013.23
2018-09-19T00:04:16.795Z,1013.27
2018-09-19T00:05:16.770Z,1013.24
2018-09-19T00:06:16.779Z,1013.20
2018-09-19T00:07:16.741Z,1013.23
2018-09-19T00:08:16.733Z,1013.26
2018-09-19T00:09:16.728Z,1013.20
2018-09-19T00:10:16.710Z,1013.17
2018-09-19T00:11:16.734Z,1013.19
2018-09-19T00:12:16.693Z,1013.22
2018-09-19T00:13:16.679Z,1013.20
2018-09-19T00:14:16.669Z,1013.19
2018-09-19T00:15:16.654Z,1013.21
2018-09-19T00:16:16.682Z,1013.22
2018-09-19T00:17:16.631Z,1013.21
2018-09-19T00:18:16.638Z,1013.21
2018-09-19T00:19:16.614Z,1013.28
2018-09-19T00:20:16.713Z,1013.31
2018-09-19T00:21:16.588Z,1013.29
2018-09-19T00:22:16.604Z,1013.33
2018-09-19T00:23:16.569Z,1013.23
2018-09-19T00:24:16.556Z,1013.20
2018-09-19T00:25:16.546Z,1013.23
2018-09-19T00:26:16.532Z,1013.19
2018-09-19T00:27:16.562Z,1013.22
2018-09-19T00:28:16.516Z,1013.21
2018-09-19T00:29:16.498Z,1013.24
2018-09-19T00:30:16.487Z,1013.20
2018-09-19T00:31:16.487Z,1013.24
2018-09-19T00:32:16.561Z,1013.26
2018-09-19T00:33:16.461Z,1013.29
2018-09-19T00:34:16.443Z,1013.30
2018-09-19T00:35:16.431Z,1013.30
2018-09-19T00:36:16.426Z,1013.35
2018-09-19T00:37:16.405Z,1013.31
2018-09-19T00:38:16.435Z,1013.32
2018-09-19T00:39:16.389Z,1013.34
2018-09-19T00:40:16.378Z,1013.33
2018-09-19T00:41:16.364Z,1013.32
2018-09-19T00:42:16.356Z,1013.35
2018-09-19T00:43:16.406Z,1013.35
2018-09-19T00:44:16.340Z,1013.33
2018-09-19T00:45:16.340Z,1013.38
2018-09-19T00:46:16.316Z,1013.32
2018-09-19T00:47:16.299Z,1013.33
2018-09-19T00:48:16.287Z,1013.37
2018-09-19T00:49:16.307Z,1013.38
2018-09-19T00:50:16.278Z,1013.42
2018-09-19T00:51:16.258Z,1013.39
2018-09-19T00:52:16.246Z,1013.40
2018-09-19T00:53:16.229Z,1013.41
2018-09-19T00:54:16.267Z,1013.38
2018-09-19T00:55:16.211Z,1013.40
2018-09-19T00:56:16.245Z,1013.32
2018-09-19T00:57:16.193Z,1013.29
2018-09-19T00:58:16.177Z,1013.27
2018-09-19T00:59:16.164Z,1013.30
2018-09-19T01:00:16.177Z,1013.35
2018-09-19T01:01:16.146Z,1013.32
2018-09-19T01:02:16.132Z,1013.38
2018-09-19T01:03:16.129Z,1013.34
2018-09-19T01:04:16.110Z,1013.40
2018-09-19T01:05:16.128Z,1013.35
2018-09-19T01:06:16.089Z,1013.33
2018-09-19T01:07:16.077Z,1013.33
2018-09-19T01:08:16.064Z,1013.30
2018-09-19T01:09:16.052Z,1013.30
2018-09-19T01:10:16.071Z,1013.37
2018-09-19T01:11:16.033Z,1013.32
2018-09-19T01:12:16.030Z,1013.36
2018-09-19T01:13:16.015Z,1013.35
2018-09-19T01:14:16.009Z,1013.39
2018-09-19T01:15:16.025Z,1013.32
2018-09-19T01:16:16.011Z,1013.38
2018-09-19T01:17:15.969Z,1013.38
2018-09-19T01:18:15.958Z,1013.45
2018-09-19T01:19:15.955Z,1013.45
2018-09-19T01:20:15.964Z,1013.47
2018-09-19T01:21:15.921Z,1013.48
2018-09-19T01:22:15.909Z,1013.45
2018-09-19T01:23:15.912Z,1013.44
2018-09-19T01:24:15.891Z,1013.45
2018-09-19T01:25:15.885Z,1013.42
2018-09-19T01:26:15.896Z,1013.42
2018-09-19T01:27:15.862Z,1013.42
2018-09-19T01:28:15.891Z,1013.49
2018-09-19T01:29:15.837Z,1013.48
2018-09-19T01:30:15.824Z,1013.48
2018-09-19T01:31:15.846Z,1013.51
2018-09-19T01:32:15.798Z,1013.46
2018-09-19T01:33:15.792Z,1013.49
2018-09-19T01:34:15.805Z,1013.52
2018-09-19T01:35:15.765Z,1013.54
2018-09-19T01:36:15.760Z,1013.55
2018-09-19T01:37:15.747Z,1013.57
2018-09-19T01:38:15.731Z,1013.59
2018-09-19T01:39:15.751Z,1013.56
2018-09-19T01:40:15.719Z,1013.55
2018-09-19T01:41:15.707Z,1013.52
2018-09-19T01:42:15.700Z,1013.51
2018-09-19T01:43:15.685Z,1013.48
2018-09-19T01:44:15.673Z,1013.49
2018-09-19T01:45:15.690Z,1013.53
2018-09-19T01:46:15.654Z,1013.48
2018-09-19T01:47:15.641Z,1013.50
2018-09-19T01:48:15.633Z,1013.51
2018-09-19T01:49:15.615Z,1013.50
2018-09-19T01:50:15.626Z,1013.56
2018-09-19T01:51:15.597Z,1013.53
2018-09-19T01:52:15.679Z,1013.59
2018-09-19T01:53:15.576Z,1013.53
2018-09-19T01:54:15.559Z,1013.59
2018-09-19T01:55:15.584Z,1013.61
2018-09-19T01:56:15.550Z,1013.57
2018-09-19T01:57:15.534Z,1013.65
2018-09-19T01:58:15.520Z,1013.62
2018-09-19T01:59:15.511Z,1013.60
2018-09-19T02:00:15.541Z,1013.63
2018-09-19T02:01:15.489Z,1013.63
2018-09-19T02:02:15.477Z,1013.60
2018-09-19T02:03:15.471Z,1013.65
2018-09-19T02:04:15.462Z,1013.66
2018-09-19T02:05:15.444Z,1013.55
2018-09-19T02:06:15.485Z,1013.60
2018-09-19T02:07:15.424Z,1013.53
2018-09-19T02:08:15.409Z,1013.52
2018-09-19T02:09:15.396Z,1013.53
2018-09-19T02:10:15.388Z,1013.50
2018-09-19T02:11:15.392Z,1013.50
2018-09-19T02:12:15.390Z,1013.59
2018-09-19T02:13:15.349Z,1013.55
2018-09-19T02:14:15.340Z,1013.51
2018-09-19T02:15:15.331Z,1013.56
2018-09-19T02:16:15.321Z,1013.53
2018-09-19T02:17:15.336Z,1013.54
2018-09-19T02:18:15.302Z,1013.50
2018-09-19T02:19:15.283Z,1013.54
2018-09-19T02:20:15.279Z,1013.51
2018-09-19T02:21:15.263Z,1013.52
2018-09-19T02:22:15.282Z,1013.57
2018-09-19T02:23:15.246Z,1013.54
2018-09-19T02:24:15.229Z,1013.49
2018-09-19T02:25:15.273Z,1013.52
2018-09-19T02:26:15.210Z,1013.59
2018-09-19T02:27:15.213Z,1013.55
2018-09-19T02:28:15.183Z,1013.53
2018-09-19T02:29:15.184Z,1013.55
2018-09-19T02:30:15.162Z,1013.59
2018-09-19T02:31:15.154Z,1013.60
2018-09-19T02:32:15.185Z,1013.58
2018-09-19T02:33:15.132Z,1013.54
2018-09-19T02:34:15.119Z,1013.56
2018-09-19T02:35:15.104Z,1013.54
2018-09-19T02:36:15.104Z,1013.54
2018-09-19T02:37:15.149Z,1013.54
2018-09-19T02:38:15.076Z,1013.58
2018-09-19T02:39:15.063Z,1013.54
2018-09-19T02:40:15.056Z,1013.56
2018-09-19T02:41:15.036Z,1013.50
2018-09-19T02:42:15.069Z,1013.49
2018-09-19T02:43:15.026Z,1013.46
2018-09-19T02:44:15.008Z,1013.41
2018-09-19T02:45:15.001Z,1013.43
2018-09-19T02:46:14.993Z,1013.42
2018-09-19T02:47:14.980Z,1013.42
2018-09-19T02:48:15.030Z,1013.42
2018-09-19T02:49:14.952Z,1013.51
2018-09-19T02:50:14.939Z,1013.50
2018-09-19T02:51:14.956Z,1013.56
2018-09-19T02:52:14.931Z,1013.59
2018-09-19T02:53:14.936Z,1013.61
2018-09-19T02:54:14.899Z,1013.60
2018-09-19T02:55:14.886Z,1013.62
2018-09-19T02:56:14.879Z,1013.58
2018-09-19T02:57:14.868Z,1013.58
2018-09-19T02:58:14.872Z,1013.57
2018-09-19T02:59:14.848Z,1013.52
2018-09-19T03:00:14.828Z,1013.51
2018-09-19T03:01:14.813Z,1013.47
2018-09-19T03:02:14.805Z,1013.48
2018-09-19T03:03:14.847Z,1013.44
2018-09-19T03:04:14.781Z,1013.48
2018-09-19T03:05:14.776Z,1013.46
2018-09-19T03:06:14.757Z,1013.47
2018-09-19T03:07:14.816Z,1013.41
2018-09-19T03:08:14.738Z,1013.42
2018-09-19T03:09:14.748Z,1013.42
2018-09-19T03:10:14.738Z,1013.47
2018-09-19T03:11:14.715Z,1013.45
2018-09-19T03:12:14.692Z,1013.45
2018-09-19T03:13:14.689Z,1013.50
2018-09-19T03:14:14.709Z,1013.47
2018-09-19T03:15:14.694Z,1013.50
2018-09-19T03:16:14.643Z,1013.48
2018-09-19T03:17:14.672Z,1013.44
2018-09-19T03:18:14.638Z,1013.46
2018-09-19T03:19:14.619Z,1013.46
2018-09-19T03:20:14.644Z,1013.43
2018-09-19T03:21:14.593Z,1013.43
2018-09-19T03:22:14.610Z,1013.46
2018-09-19T03:23:14.573Z,1013.54
2018-09-19T03:24:14.567Z,1013.55
2018-09-19T03:25:14.563Z,1013.56
2018-09-19T03:26:14.567Z,1013.52
2018-09-19T03:27:14.538Z,1013.59
2018-09-19T03:28:14.521Z,1013.60
2018-09-19T03:29:14.515Z,1013.61
2018-09-19T03:30:14.493Z,1013.67
2018-09-19T03:31:14.552Z,1013.65
2018-09-19T03:32:14.473Z,1013.65
2018-09-19T03:33:14.466Z,1013.67
2018-09-19T03:34:14.461Z,1013.67
2018-09-19T03:35:14.461Z,1013.66
2018-09-19T03:36:14.477Z,1013.66
2018-09-19T03:37:14.423Z,1013.67
2018-09-19T03:38:14.404Z,1013.63
2018-09-19T03:39:14.407Z,1013.63
2018-09-19T03:40:14.379Z,1013.62
2018-09-19T03:41:14.399Z,1013.62
2018-09-19T03:42:14.368Z,1013.67
2018-09-19T03:43:14.351Z,1013.58
2018-09-19T03:44:14.341Z,1013.60
2018-09-19T03:45:14.351Z,1013.57
2018-09-19T03:46:14.314Z,1013.57
2018-09-19T03:47:14.361Z,1013.59
2018-09-19T03:48:14.301Z,1013.55
2018-09-19T03:49:14.282Z,1013.59
2018-09-19T03:50:14.277Z,1013.63
2018-09-19T03:51:14.265Z,1013.62
2018-09-19T03:52:14.284Z,1013.65
2018-09-19T03:53:14.241Z,1013.61
2018-09-19T03:54:14.229Z,1013.60
2018-09-19T03:55:14.223Z,1013.60
2018-09-19T03:56:14.217Z,1013.60
2018-09-19T03:57:14.232Z,1013.62
2018-09-19T03:58:14.256Z,1013.57
2018-09-19T03:59:14.179Z,1013.60
2018-09-19T04:00:14.164Z,1013.59
2018-09-19T04:01:14.162Z,1013.61
2018-09-19T04:02:15.667Z,1013.63
2018-09-19T04:03:14.136Z,1013.59
2018-09-19T04:04:14.129Z,1013.57
2018-09-19T04:05:14.118Z,1013.52
2018-09-19T04:06:14.095Z,1013.60
2018-09-19T04:07:14.109Z,1013.63
2018-09-19T04:08:14.085Z,1013.61
2018-09-19T04:09:14.130Z,1013.58
2018-09-19T04:10:14.056Z,1013.59
2018-09-19T04:11:14.060Z,1013.61
2018-09-19T04:12:14.063Z,1013.58
2018-09-19T04:13:14.022Z,1013.61
2018-09-19T04:14:14.037Z,1013.74
2018-09-19T04:15:14.012Z,1013.68
2018-09-19T04:16:14.002Z,1013.70
2018-09-19T04:17:13.980Z,1013.73
2018-09-19T04:18:13.970Z,1013.72
2018-09-19T04:19:13.983Z,1013.79
2018-09-19T04:20:13.949Z,1013.73
2018-09-19T04:21:13.945Z,1013.75
2018-09-19T04:22:13.932Z,1013.76
2018-09-19T04:23:13.920Z,1013.78
2018-09-19T04:24:13.930Z,1013.71
2018-09-19T04:25:13.906Z,1013.69
2018-09-19T04:26:13.884Z,1013.70
2018-09-19T04:27:13.895Z,1013.72
2018-09-19T04:28:13.884Z,1013.68
2018-09-19T04:29:13.879Z,1013.78
2018-09-19T04:30:13.839Z,1013.71
2018-09-19T04:31:13.841Z,1013.61
2018-09-19T04:32:13.864Z,1013.64
2018-09-19T04:33:13.817Z,1013.71
2018-09-19T04:34:13.796Z,1013.66
2018-09-19T04:35:13.822Z,1013.72
2018-09-19T04:36:13.777Z,1013.70
2018-09-19T04:37:13.771Z,1013.68
2018-09-19T04:38:13.754Z,1013.70
2018-09-19T04:39:13.747Z,1013.72
2018-09-19T04:40:13.829Z,1013.72
2018-09-19T04:41:13.723Z,1013.67
2018-09-19T04:42:13.719Z,1013.64
2018-09-19T04:43:13.760Z,1013.70
2018-09-19T04:44:13.682Z,1013.69
2018-09-19T04:45:13.767Z,1013.69
2018-09-19T04:46:13.666Z,1013.70
2018-09-19T04:47:13.652Z,1013.73
2018-09-19T04:48:13.662Z,1013.68
2018-09-19T04:49:13.628Z,1013.70
2018-09-19T04:50:13.716Z,1013.66
2018-09-19T04:51:13.692Z,1013.75
2018-09-19T04:52:13.602Z,1013.69
2018-09-19T04:53:13.589Z,1013.73
2018-09-19T04:54:13.589Z,1013.73
2018-09-19T04:55:13.593Z,1013.67
2018-09-19T04:56:13.561Z,1013.69
2018-09-19T04:57:13.546Z,1013.67
2018-09-19T04:58:13.539Z,1013.70
2018-09-19T04:59:13.531Z,1013.67
2018-09-19T05:00:13.564Z,1013.61
2018-09-19T05:01:13.512Z,1013.65
2018-09-19T05:02:13.497Z,1013.58
2018-09-19T05:03:13.483Z,1013.59
2018-09-19T05:04:13.474Z,1013.60
2018-09-19T05:05:13.460Z,1013.56
2018-09-19T05:06:13.488Z,1013.58
2018-09-19T05:07:13.522Z,1013.60
2018-09-19T05:08:13.453Z,1013.59
2018-09-19T05:09:13.411Z,1013.58
2018-09-19T05:10:13.433Z,1013.64
2018-09-19T05:11:13.447Z,1013.62
2018-09-19T05:12:13.386Z,1013.64
2018-09-19T05:13:13.376Z,1013.61
2018-09-19T05:14:13.369Z,1013.55
2018-09-19T05:15:13.349Z,1013.61
2018-09-19T05:16:13.357Z,1013.65
2018-09-19T05:17:13.335Z,1013.63
2018-09-19T05:18:13.315Z,1013.60
2018-09-19T05:19:13.330Z,1013.64
2018-09-19T05:20:13.291Z,1013.58
2018-09-19T05:21:13.305Z,1013.58
2018-09-19T05:22:13.268Z,1013.56
2018-09-19T05:23:13.358Z,1013.57
2018-09-19T05:24:13.261Z,1013.59
2018-09-19T05:25:13.241Z,1013.64
2018-09-19T05:26:13.264Z,1013.65
2018-09-19T05:27:13.222Z,1013.59
2018-09-19T05:28:13.208Z,1013.62
2018-09-19T05:29:13.203Z,1013.64
2018-09-19T05:30:13.189Z,1013.63
2018-09-19T05:31:13.175Z,1013.58
2018-09-19T05:32:13.196Z,1013.62
2018-09-19T05:33:13.148Z,1013.61
2018-09-19T05:34:13.176Z,1013.64
2018-09-19T05:35:13.134Z,1013.65
2018-09-19T05:36:13.129Z,1013.63
2018-09-19T05:37:13.138Z,1013.63
2018-09-19T05:38:13.096Z,1013.61
2018-09-19T05:39:13.099Z,1013.61
2018-09-19T05:40:13.081Z,1013.63
2018-09-19T05:41:13.063Z,1013.63
2018-09-19T05:42:13.103Z,1013.64
2018-09-19T05:43:13.038Z,1013.64
2018-09-19T05:44:13.037Z,1013.67
2018-09-19T05:45:13.018Z,1013.70
2018-09-19T05:46:13.064Z,1013.70
2018-09-19T05:47:13.042Z,1013.70
2018-09-19T05:48:12.988Z,1013.65
2018-09-19T05:49:12.976Z,1013.66
2018-09-19T05:50:13.001Z,1013.68
2018-09-19T05:51:13.014Z,1013.56
2018-09-19T05:52:12.966Z,1013.60
2018-09-19T05:53:12.928Z,1013.59
2018-09-19T05:54:12.913Z,1013.55
2018-09-19T05:55:12.908Z,1013.52
2018-09-19T05:56:12.894Z,1013.46
2018-09-19T05:57:12.888Z,1013.45
2018-09-19T05:58:12.909Z,1013.47
2018-09-19T05:59:12.861Z,1013.46
2018-09-19T06:00:12.851Z,1013.43
2018-09-19T06:01:12.838Z,1013.38
2018-09-19T06:02:12.833Z,1013.41
2018-09-19T06:03:12.972Z,1013.33
2018-09-19T06:04:12.808Z,1013.39
2018-09-19T06:05:12.806Z,1013.33
2018-09-19T06:06:12.796Z,1013.35
2018-09-19T06:07:12.768Z,1013.40
2018-09-19T06:08:12.761Z,1013.35
2018-09-19T06:09:12.773Z,1013.44
2018-09-19T06:10:12.756Z,1013.42
2018-09-19T06:11:12.727Z,1013.46
2018-09-19T06:12:12.720Z,1013.47
2018-09-19T06:13:12.712Z,1013.45
2018-09-19T06:14:12.725Z,1013.43
2018-09-19T06:15:12.687Z,1013.42
2018-09-19T06:16:12.668Z,1013.43
2018-09-19T06:17:12.655Z,1013.43
2018-09-19T06:18:12.654Z,1013.45
2018-09-19T06:19:12.733Z,1013.51
2018-09-19T06:20:12.635Z,1013.47
2018-09-19T06:21:12.613Z,1013.46
2018-09-19T06:22:12.609Z,1013.43
2018-09-19T06:23:12.588Z,1013.42
2018-09-19T06:24:12.575Z,1013.43
2018-09-19T06:25:12.599Z,1013.39
2018-09-19T06:26:12.556Z,1013.35
2018-09-19T06:27:12.549Z,1013.39
2018-09-19T06:28:12.542Z,1013.37
2018-09-19T06:29:12.528Z,1013.36
2018-09-19T06:30:12.547Z,1013.40
2018-09-19T06:31:12.506Z,1013.38
2018-09-19T06:32:12.502Z,1013.38
2018-09-19T06:33:12.698Z,1013.43
2018-09-19T06:34:12.503Z,1013.33
2018-09-19T06:35:12.482Z,1013.24
2018-09-19T06:36:12.449Z,1013.27
2018-09-19T06:37:12.438Z,1013.22
2018-09-19T06:38:12.430Z,1013.21
2018-09-19T06:39:12.440Z,1013.19
2018-09-19T06:40:12.563Z,1013.22
2018-09-19T06:41:12.396Z,1013.11
2018-09-19T06:42:12.377Z,1013.11
2018-09-19T06:43:12.468Z,1013.07
2018-09-19T06:44:12.365Z,1013.07
2018-09-19T06:45:12.369Z,1013.08
2018-09-19T06:46:12.349Z,1013.08
2018-09-19T06:47:12.325Z,1013.15
2018-09-19T06:48:12.320Z,1013.11
2018-09-19T06:49:12.302Z,1013.11
2018-09-19T06:50:12.311Z,1013.10
2018-09-19T06:51:12.294Z,1013.11
2018-09-19T06:52:12.311Z,1013.11
2018-09-19T06:53:12.260Z,1013.12
2018-09-19T06:54:12.252Z,1013.17
2018-09-19T06:55:12.239Z,1013.11
2018-09-19T06:56:12.241Z,1013.14
2018-09-19T06:57:12.249Z,1013.12
2018-09-19T06:58:12.209Z,1013.08
2018-09-19T06:59:12.196Z,1013.09
2018-09-19T07:00:12.187Z,1013.06
2018-09-19T07:01:12.179Z,1013.10
2018-09-19T07:02:12.188Z,1013.15
2018-09-19T07:03:12.157Z,1013.19
2018-09-19T07:04:12.138Z,1013.18
2018-09-19T07:05:12.126Z,1013.19
2018-09-19T07:06:12.124Z,1013.29
2018-09-19T07:07:12.104Z,1013.30
2018-09-19T07:08:12.121Z,1013.32
2018-09-19T07:09:12.083Z,1013.28
2018-09-19T07:10:12.070Z,1013.33
2018-09-19T07:11:12.061Z,1013.34
2018-09-19T07:12:12.047Z,1013.34
2018-09-19T07:13:12.069Z,1013.32
2018-09-19T07:14:12.036Z,1013.34
2018-09-19T07:15:12.020Z,1013.34
2018-09-19T07:16:12.006Z,1013.36
2018-09-19T07:17:11.999Z,1013.37
2018-09-19T07:18:12.022Z,1013.37
2018-09-19T07:19:11.972Z,1013.39
2018-09-19T07:20:11.995Z,1013.36
2018-09-19T07:21:11.950Z,1013.40
2018-09-19T07:22:11.945Z,1013.39
2018-09-19T07:23:11.964Z,1013.46
2018-09-19T07:24:11.926Z,1013.51
2018-09-19T07:25:11.960Z,1013.53
2018-09-19T07:26:11.897Z,1013.53
2018-09-19T07:27:11.894Z,1013.53
2018-09-19T07:28:11.890Z,1013.46
2018-09-19T07:29:11.893Z,1013.60
2018-09-19T07:30:11.856Z,1013.58
2018-09-19T07:31:11.972Z,1013.56
2018-09-19T07:32:11.856Z,1013.49
2018-09-19T07:33:11.817Z,1013.56
2018-09-19T07:34:11.809Z,1013.53
2018-09-19T07:35:11.819Z,1013.52
2018-09-19T07:36:11.787Z,1013.55
2018-09-19T07:37:11.784Z,1013.50
2018-09-19T07:38:11.797Z,1013.50
2018-09-19T07:39:11.770Z,1013.54
2018-09-19T07:40:11.783Z,1013.48
2018-09-19T07:41:11.730Z,1013.52
2018-09-19T07:42:11.729Z,1013.53
2018-09-19T07:43:11.730Z,1013.50
2018-09-19T07:44:11.697Z,1013.46
2018-09-19T07:45:11.697Z,1013.47
2018-09-19T07:46:11.681Z,1013.51
2018-09-19T07:47:11.669Z,1013.51
2018-09-19T07:48:11.683Z,1013.50
2018-09-19T07:49:11.647Z,1013.46
2018-09-19T07:50:11.631Z,1013.47
2018-09-19T07:51:11.617Z,1013.42
2018-09-19T07:52:11.606Z,1013.45
2018-09-19T07:53:11.630Z,1013.47
2018-09-19T07:54:11.589Z,1013.50
2018-09-19T07:55:11.765Z,1013.44
2018-09-19T07:56:11.566Z,1013.51
2018-09-19T07:57:11.565Z,1013.52
2018-09-19T07:58:11.540Z,1013.57
2018-09-19T07:59:11.593Z,1013.56
2018-09-19T08:00:11.521Z,1013.54
2018-09-19T08:01:11.714Z,1013.54
2018-09-19T08:02:11.501Z,1013.55
2018-09-19T08:03:11.495Z,1013.63
2018-09-19T08:04:11.489Z,1013.62
2018-09-19T08:05:11.474Z,1013.51
2018-09-19T08:06:11.483Z,1013.54
2018-09-19T08:07:11.448Z,1013.51
2018-09-19T08:08:11.427Z,1013.55
2018-09-19T08:09:11.548Z,1013.53
2018-09-19T08:10:11.422Z,1013.58
2018-09-19T08:11:11.408Z,1013.60
2018-09-19T08:12:11.417Z,1013.59
2018-09-19T08:13:11.396Z,1013.56
2018-09-19T08:14:11.377Z,1013.52
2018-09-19T08:15:11.353Z,1013.52
2018-09-19T08:16:11.344Z,1013.55
2018-09-19T08:17:11.355Z,1013.63
2018-09-19T08:18:11.321Z,1013.63
2018-09-19T08:19:11.400Z,1013.65
2018-09-19T08:20:11.306Z,1013.66
2018-09-19T08:21:11.289Z,1013.61
2018-09-19T08:22:11.302Z,1013.58
2018-09-19T08:23:11.272Z,1013.60
2018-09-19T08:24:11.259Z,1013.57
2018-09-19T08:25:11.243Z,1013.59
2018-09-19T08:26:11.232Z,1013.58
2018-09-19T08:27:11.245Z,1013.55
2018-09-19T08:28:11.214Z,1013.52
2018-09-19T08:29:11.201Z,1013.47
2018-09-19T08:30:11.207Z,1013.51
2018-09-19T08:31:11.179Z,1013.45
2018-09-19T08:32:12.202Z,1013.45
2018-09-19T08:33:11.157Z,1013.44
2018-09-19T08:34:11.209Z,1013.42
2018-09-19T08:35:11.147Z,1013.44
2018-09-19T08:36:11.121Z,1013.40
2018-09-19T08:37:11.141Z,1013.37
2018-09-19T08:38:11.107Z,1013.38
2018-09-19T08:39:11.090Z,1013.35
2018-09-19T08:40:11.087Z,1013.36
2018-09-19T08:41:11.076Z,1013.40
2018-09-19T08:42:11.063Z,1013.41
2018-09-19T08:43:11.068Z,1013.42
2018-09-19T08:44:11.034Z,1013.47
2018-09-19T08:45:11.027Z,1013.49
2018-09-19T08:46:11.018Z,1013.46
2018-09-19T08:47:11.016Z,1013.43
2018-09-19T08:48:10.991Z,1013.38
2018-09-19T08:49:11.006Z,1013.37
2018-09-19T08:50:10.976Z,1013.32
2018-09-19T08:51:10.978Z,1013.34
2018-09-19T08:52:10.943Z,1013.31
2018-09-19T08:53:10.934Z,1013.39
2018-09-19T08:54:10.960Z,1013.35
2018-09-19T08:55:10.912Z,1013.30
2018-09-19T08:56:10.904Z,1013.28
2018-09-19T08:57:10.911Z,1013.26
2018-09-19T08:58:10.876Z,1013.26
2018-09-19T08:59:10.965Z,1013.22
2018-09-19T09:00:10.863Z,1013.21
2018-09-19T09:01:10.843Z,1013.25
2018-09-19T09:02:10.839Z,1013.26
2018-09-19T09:03:10.825Z,1013.30
2018-09-19T09:04:10.813Z,1013.34
2018-09-19T09:05:10.853Z,1013.39
2018-09-19T09:06:10.794Z,1013.34
2018-09-19T09:07:10.786Z,1013.28
2018-09-19T09:08:10.768Z,1013.32
2018-09-19T09:09:10.767Z,1013.36
2018-09-19T09:10:10.781Z,1013.30
2018-09-19T09:11:10.737Z,1013.33
2018-09-19T09:12:10.773Z,1013.29
2018-09-19T09:13:10.726Z,1013.28
2018-09-19T09:14:10.705Z,1013.35
2018-09-19T09:15:10.809Z,1013.34
2018-09-19T09:16:10.695Z,1013.37
2018-09-19T09:17:10.679Z,1013.36
2018-09-19T09:18:10.669Z,1013.35
2018-09-19T09:19:10.648Z,1013.31
2018-09-19T09:20:10.674Z,1013.30
2018-09-19T09:21:10.632Z,1013.28
2018-09-19T09:22:10.618Z,1013.32
2018-09-19T09:23:10.606Z,1013.32
2018-09-19T09:24:10.595Z,1013.30
2018-09-19T09:25:10.584Z,1013.27
2018-09-19T09:26:10.640Z,1013.30
2018-09-19T09:27:10.643Z,1013.27
2018-09-19T09:28:10.551Z,1013.25
2018-09-19T09:29:10.544Z,1013.22
2018-09-19T09:30:10.549Z,1013.23
2018-09-19T09:31:10.664Z,1013.23
2018-09-19T09:32:10.516Z,1013.21
2018-09-19T09:33:10.493Z,1013.25
2018-09-19T09:34:10.529Z,1013.22
2018-09-19T09:35:10.473Z,1013.23
2018-09-19T09:36:10.462Z,1013.19
2018-09-19T09:37:10.477Z,1013.21
2018-09-19T09:38:10.445Z,1013.16
2018-09-19T09:39:10.433Z,1013.19
2018-09-19T09:40:10.418Z,1013.18
2018-09-19T09:41:10.410Z,1013.21
2018-09-19T09:42:10.429Z,1013.19
2018-09-19T09:43:10.388Z,1013.19
2018-09-19T09:44:10.376Z,1013.20
2018-09-19T09:45:10.378Z,1013.26
2018-09-19T09:46:10.420Z,1013.25
2018-09-19T09:47:10.341Z,1013.24
2018-09-19T09:48:10.369Z,1013.21
2018-09-19T09:49:10.327Z,1013.18
2018-09-19T09:50:10.369Z,1013.25
2018-09-19T09:51:10.297Z,1013.20
2018-09-19T09:52:10.296Z,1013.15
2018-09-19T09:53:10.306Z,1013.14
2018-09-19T09:54:10.290Z,1013.16
2018-09-19T09:55:10.322Z,1013.10
2018-09-19T09:56:10.253Z,1013.11
2018-09-19T09:57:10.230Z,1013.08
2018-09-19T09:58:10.222Z,1013.10
2018-09-19T09:59:10.246Z,1013.11
2018-09-19T10:00:10.201Z,1013.01
2018-09-19T10:01:10.277Z,1013.04
2018-09-19T10:02:10.180Z,1012.97
2018-09-19T10:03:17.223Z,1012.99
2018-09-19T10:04:10.184Z,1013.02
2018-09-19T10:05:10.178Z,1013.02
2018-09-19T10:06:10.131Z,1012.97
2018-09-19T10:07:10.125Z,1013.01
2018-09-19T10:08:10.113Z,1012.96
2018-09-19T10:09:10.106Z,1013.03
2018-09-19T10:10:10.133Z,1013.02
2018-09-19T10:11:10.082Z,1013.02
2018-09-19T10:12:10.114Z,1013.09
2018-09-19T10:13:10.075Z,1013.06
2018-09-19T10:14:10.058Z,1012.99
2018-09-19T10:15:10.041Z,1013.04
2018-09-19T10:16:10.064Z,1012.99
2018-09-19T10:17:10.023Z,1013.01
2018-09-19T10:18:10.005Z,1012.98
2018-09-19T10:19:10.008Z,1013.05
2018-09-19T10:20:09.981Z,1013.00
2018-09-19T10:21:10.011Z,1013.08
2018-09-19T10:22:10.000Z,1013.01
2018-09-19T10:23:09.953Z,1013.07
2018-09-19T10:24:09.936Z,1013.03
2018-09-19T10:25:09.933Z,1012.95
2018-09-19T10:26:09.953Z,1012.90
2018-09-19T10:27:09.919Z,1012.96
2018-09-19T10:28:09.934Z,1012.92
2018-09-19T10:29:09.885Z,1012.93
2018-09-19T10:30:09.888Z,1012.93
2018-09-19T10:31:09.860Z,1012.88
2018-09-19T10:32:09.855Z,1012.89
2018-09-19T10:33:09.868Z,1012.85
2018-09-19T10:34:09.849Z,1012.86
2018-09-19T10:35:09.824Z,1012.85
2018-09-19T10:36:09.811Z,1012.92
2018-09-19T10:37:09.799Z,1012.89
2018-09-19T10:38:09.819Z,1012.82
2018-09-19T10:39:09.780Z,1012.81
2018-09-19T10:40:09.765Z,1012.81
2018-09-19T10:41:09.781Z,1012.79
2018-09-19T10:42:09.761Z,1012.85
2018-09-19T10:43:09.780Z,1012.81
2018-09-19T10:44:09.737Z,1012.79
2018-09-19T10:45:09.713Z,1012.82
2018-09-19T10:46:09.700Z,1012.80
2018-09-19T10:47:09.693Z,1012.78
2018-09-19T10:48:09.719Z,1012.73
2018-09-19T10:49:09.666Z,1012.73
2018-09-19T10:50:09.671Z,1012.76
2018-09-19T10:51:09.646Z,1012.79
2018-09-19T10:52:09.668Z,1012.82
2018-09-19T10:53:09.623Z,1012.66
2018-09-19T10:54:09.631Z,1012.85
2018-09-19T10:55:09.604Z,1012.78
2018-09-19T10:56:09.603Z,1012.78
2018-09-19T10:57:09.613Z,1012.83
2018-09-19T10:58:09.571Z,1012.75
2018-09-19T10:59:09.566Z,1012.73
2018-09-19T11:00:09.546Z,1012.78
2018-09-19T11:01:09.547Z,1012.76
2018-09-19T11:02:09.570Z,1012.77
2018-09-19T11:03:09.517Z,1012.76
2018-09-19T11:04:09.504Z,1012.77
2018-09-19T11:05:09.492Z,1012.82
2018-09-19T11:06:09.514Z,1012.73
2018-09-19T11:07:09.472Z,1012.80
2018-09-19T11:08:09.460Z,1012.70
2018-09-19T11:09:09.449Z,1012.75
2018-09-19T11:10:09.505Z,1012.77
2018-09-19T11:11:09.469Z,1012.81
2018-09-19T11:12:09.418Z,1012.85
2018-09-19T11:13:09.412Z,1012.74
2018-09-19T11:14:09.393Z,1012.81
2018-09-19T11:15:09.412Z,1012.74
2018-09-19T11:16:09.400Z,1012.76
2018-09-19T11:17:09.374Z,1012.76
2018-09-19T11:18:09.349Z,1012.70
2018-09-19T11:19:09.352Z,1012.72
2018-09-19T11:20:09.331Z,1012.70
2018-09-19T11:21:09.356Z,1012.75
2018-09-19T11:22:09.302Z,1012.72
2018-09-19T11:23:09.295Z,1012.77
2018-09-19T11:24:09.322Z,1012.64
2018-09-19T11:25:09.275Z,1012.69
2018-09-19T11:26:09.263Z,1012.79
2018-09-19T11:27:09.252Z,1012.76
2018-09-19T11:28:09.236Z,1012.71
2018-09-19T11:29:09.260Z,1012.75
2018-09-19T11:30:09.246Z,1012.72
2018-09-19T11:31:09.205Z,1012.78
2018-09-19T11:32:09.205Z,1012.80
2018-09-19T11:33:09.216Z,1012.73
2018-09-19T11:34:09.188Z,1012.69
2018-09-19T11:35:09.165Z,1012.71
2018-09-19T11:36:09.154Z,1012.74
2018-09-19T11:37:09.150Z,1012.76
2018-09-19T11:38:09.167Z,1012.73
2018-09-19T11:39:09.126Z,1012.42
2018-09-19T11:40:09.140Z,1012.76
2018-09-19T11:41:09.100Z,1012.64
2018-09-19T11:42:09.088Z,1012.62
2018-09-19T11:43:09.102Z,1012.78
2018-09-19T11:44:09.099Z,1012.74
2018-09-19T11:45:09.058Z,1012.77
2018-09-19T11:46:09.046Z,1012.71
2018-09-19T11:47:09.032Z,1012.76
2018-09-19T11:48:09.021Z,1012.78
2018-09-19T11:49:09.043Z,1012.71
2018-09-19T11:50:09.029Z,1012.74
2018-09-19T11:51:09.015Z,1012.75
2018-09-19T11:52:09.004Z,1012.79
2018-09-19T11:53:08.973Z,1012.76
2018-09-19T11:54:08.959Z,1012.78
2018-09-19T11:55:08.955Z,1012.81
2018-09-19T11:56:08.979Z,1012.81
2018-09-19T11:57:08.932Z,1012.81
2018-09-19T11:58:08.972Z,1012.70
2018-09-19T11:59:08.924Z,1012.79
2018-09-19T12:00:08.890Z,1012.82
2018-09-19T12:01:08.937Z,1012.82
2018-09-19T12:02:08.876Z,1012.82
2018-09-19T12:03:08.860Z,1012.75
2018-09-19T12:04:08.851Z,1012.71
2018-09-19T12:05:08.839Z,1012.82